sensor_id;sensor_type;location;lat;lon;timestamp;pressure;altitude;pressure_sealevel;temperature;humidity
15529;BME280;7866;52.280;9.500;2023-03-20T00:00:59;100481.50;;;10.79;91.31
15529;BME280;7866;52.280;9.500;2023-03-20T00:06:02;100483.38;;;10.87;90.44
15529;BME280;7866;52.280;9.500;2023-03-20T00:11:04;100485.53;;;10.75;90.35
15529;BME280;7866;52.280;9.500;2023-03-20T00:16:07;100475.81;;;10.57;92.31
15529;BME280;7866;52.280;9.500;2023-03-20T00:21:14;100480.50;;;10.64;91.98
15529;BME280;7866;52.280;9.500;2023-03-20T00:26:18;100486.34;;;10.67;91.30
15529;BME280;7866;52.280;9.500;2023-03-20T00:31:23;100483.88;;;10.66;91.73
15529;BME280;7866;52.280;9.500;2023-03-20T00:36:27;100480.50;;;10.80;90.82
15529;BME280;7866;52.280;9.500;2023-03-20T00:41:34;100475.81;;;10.90;90.21
15529;BME280;7866;52.280;9.500;2023-03-20T00:46:42;100473.28;;;11.05;89.60
15529;BME280;7866;52.280;9.500;2023-03-20T00:51:46;100469.75;;;11.13;88.25
15529;BME280;7866;52.280;9.500;2023-03-20T00:56:52;100476.81;;;11.14;87.37
15529;BME280;7866;52.280;9.500;2023-03-20T01:01:55;100480.16;;;10.99;88.90
15529;BME280;7866;52.280;9.500;2023-03-20T01:06:59;100474.16;;;11.05;89.04
15529;BME280;7866;52.280;9.500;2023-03-20T01:12:01;100469.63;;;10.90;89.55
15529;BME280;7866;52.280;9.500;2023-03-20T01:17:03;100465.94;;;10.91;88.96
15529;BME280;7866;52.280;9.500;2023-03-20T01:22:06;100481.31;;;10.97;88.66
15529;BME280;7866;52.280;9.500;2023-03-20T01:27:11;100477.50;;;10.91;89.61
15529;BME280;7866;52.280;9.500;2023-03-20T01:32:15;100489.22;;;10.74;91.25
15529;BME280;7866;52.280;9.500;2023-03-20T01:37:25;100497.59;;;10.79;91.33
15529;BME280;7866;52.280;9.500;2023-03-20T01:42:27;100496.75;;;10.62;91.87
15529;BME280;7866;52.280;9.500;2023-03-20T01:47:29;100494.56;;;10.49;91.74
15529;BME280;7866;52.280;9.500;2023-03-20T01:52:32;100494.69;;;10.40;90.32
15529;BME280;7866;52.280;9.500;2023-03-20T01:57:34;100503.88;;;10.37;89.99
15529;BME280;7866;52.280;9.500;2023-03-20T02:02:37;100503.22;;;10.35;88.45
15529;BME280;7866;52.280;9.500;2023-03-20T02:07:44;100512.50;;;10.15;87.90
15529;BME280;7866;52.280;9.500;2023-03-20T02:12:47;100520.50;;;10.06;87.04
15529;BME280;7866;52.280;9.500;2023-03-20T02:17:49;100534.06;;;10.21;87.04
15529;BME280;7866;52.280;9.500;2023-03-20T02:23:24;100528.22;;;10.18;86.18
15529;BME280;7866;52.280;9.500;2023-03-20T02:28:56;100530.53;;;10.12;85.69
15529;BME280;7866;52.280;9.500;2023-03-20T02:34:22;100524.56;;;10.19;85.77
15529;BME280;7866;52.280;9.500;2023-03-20T02:39:50;100509.13;;;10.12;85.26
15529;BME280;7866;52.280;9.500;2023-03-20T02:45:02;100504.25;;;10.08;85.05
15529;BME280;7866;52.280;9.500;2023-03-20T02:50:13;100500.09;;;10.05;84.34
15529;BME280;7866;52.280;9.500;2023-03-20T02:55:22;100500.56;;;10.01;84.55
15529;BME280;7866;52.280;9.500;2023-03-20T03:00:32;100509.72;;;9.90;84.58
15529;BME280;7866;52.280;9.500;2023-03-20T03:05:37;100508.19;;;9.87;85.16
15529;BME280;7866;52.280;9.500;2023-03-20T03:10:44;100500.34;;;9.86;85.44
15529;BME280;7866;52.280;9.500;2023-03-20T03:15:50;100501.66;;;9.82;85.36
15529;BME280;7866;52.280;9.500;2023-03-20T03:20:55;100505.75;;;9.68;84.69
15529;BME280;7866;52.280;9.500;2023-03-20T03:26:01;100496.06;;;9.41;85.69
15529;BME280;7866;52.280;9.500;2023-03-20T03:31:07;100507.78;;;9.40;86.24
15529;BME280;7866;52.280;9.500;2023-03-20T03:36:12;100510.09;;;9.35;86.60
15529;BME280;7866;52.280;9.500;2023-03-20T03:41:22;100501.00;;;9.28;86.56
15529;BME280;7866;52.280;9.500;2023-03-20T03:46:29;100506.09;;;9.39;86.84
15529;BME280;7866;52.280;9.500;2023-03-20T03:51:38;100508.41;;;9.34;86.67
15529;BME280;7866;52.280;9.500;2023-03-20T03:56:44;100517.09;;;9.36;86.24
15529;BME280;7866;52.280;9.500;2023-03-20T04:01:48;100513.16;;;9.48;86.40
15529;BME280;7866;52.280;9.500;2023-03-20T04:06:50;100512.91;;;9.59;85.89
15529;BME280;7866;52.280;9.500;2023-03-20T04:11:54;100512.59;;;9.62;85.58
15529;BME280;7866;52.280;9.500;2023-03-20T04:16:55;100492.88;;;9.63;85.05
15529;BME280;7866;52.280;9.500;2023-03-20T04:21:57;100491.34;;;9.61;85.73
15529;BME280;7866;52.280;9.500;2023-03-20T04:27:00;100495.56;;;9.63;85.96
15529;BME280;7866;52.280;9.500;2023-03-20T04:32:02;100494.75;;;9.71;85.45
15529;BME280;7866;52.280;9.500;2023-03-20T04:37:03;100489.75;;;9.76;85.33
15529;BME280;7866;52.280;9.500;2023-03-20T04:42:09;100484.25;;;9.78;84.98
15529;BME280;7866;52.280;9.500;2023-03-20T04:47:11;100482.59;;;9.85;84.06
15529;BME280;7866;52.280;9.500;2023-03-20T04:52:13;100466.56;;;9.85;84.75
15529;BME280;7866;52.280;9.500;2023-03-20T04:57:16;100476.63;;;9.91;84.71
15529;BME280;7866;52.280;9.500;2023-03-20T05:02:18;100482.31;;;9.96;84.46
15529;BME280;7866;52.280;9.500;2023-03-20T05:07:19;100478.28;;;9.92;84.43
15529;BME280;7866;52.280;9.500;2023-03-20T05:12:22;100474.31;;;10.04;84.45
15529;BME280;7866;52.280;9.500;2023-03-20T05:17:26;100473.78;;;9.93;84.27
15529;BME280;7866;52.280;9.500;2023-03-20T05:22:27;100470.25;;;9.92;85.14
15529;BME280;7866;52.280;9.500;2023-03-20T05:27:30;100466.94;;;9.90;84.77
15529;BME280;7866;52.280;9.500;2023-03-20T05:32:32;100468.72;;;9.81;85.83
15529;BME280;7866;52.280;9.500;2023-03-20T05:37:36;100477.41;;;9.83;85.49
15529;BME280;7866;52.280;9.500;2023-03-20T05:42:39;100479.59;;;9.88;86.44
15529;BME280;7866;52.280;9.500;2023-03-20T05:47:41;100488.59;;;9.79;86.78
15529;BME280;7866;52.280;9.500;2023-03-20T05:52:45;100475.59;;;9.84;87.04
15529;BME280;7866;52.280;9.500;2023-03-20T05:57:48;100476.41;;;9.84;86.46
15529;BME280;7866;52.280;9.500;2023-03-20T06:02:50;100476.06;;;9.79;87.31
15529;BME280;7866;52.280;9.500;2023-03-20T06:07:52;100481.66;;;9.94;86.78
15529;BME280;7866;52.280;9.500;2023-03-20T06:12:55;100481.94;;;9.83;85.42
15529;BME280;7866;52.280;9.500;2023-03-20T06:17:57;100490.97;;;9.82;86.93
15529;BME280;7866;52.280;9.500;2023-03-20T06:22:59;100507.53;;;9.85;86.22
15529;BME280;7866;52.280;9.500;2023-03-20T06:28:02;100510.34;;;9.84;85.90
15529;BME280;7866;52.280;9.500;2023-03-20T06:33:05;100508.38;;;9.86;86.07
15529;BME280;7866;52.280;9.500;2023-03-20T06:38:07;100502.78;;;9.71;87.46
15529;BME280;7866;52.280;9.500;2023-03-20T06:43:10;100513.81;;;9.76;86.43
15529;BME280;7866;52.280;9.500;2023-03-20T06:48:12;100519.59;;;9.90;85.62
15529;BME280;7866;52.280;9.500;2023-03-20T06:53:15;100519.06;;;9.86;84.95
15529;BME280;7866;52.280;9.500;2023-03-20T06:58:18;100518.56;;;9.82;85.02
15529;BME280;7866;52.280;9.500;2023-03-20T07:03:20;100514.41;;;9.96;84.13
15529;BME280;7866;52.280;9.500;2023-03-20T07:08:21;100522.78;;;10.01;83.18
15529;BME280;7866;52.280;9.500;2023-03-20T07:13:25;100520.13;;;10.01;82.59
15529;BME280;7866;52.280;9.500;2023-03-20T07:18:28;100520.53;;;10.15;82.15
15529;BME280;7866;52.280;9.500;2023-03-20T07:23:30;100526.22;;;10.20;81.51
15529;BME280;7866;52.280;9.500;2023-03-20T07:28:35;100522.19;;;10.16;80.64
15529;BME280;7866;52.280;9.500;2023-03-20T07:33:36;100530.63;;;10.29;80.68
15529;BME280;7866;52.280;9.500;2023-03-20T07:38:38;100538.66;;;10.29;80.12
15529;BME280;7866;52.280;9.500;2023-03-20T07:43:41;100548.06;;;10.41;79.65
15529;BME280;7866;52.280;9.500;2023-03-20T07:48:42;100548.38;;;10.30;79.72
15529;BME280;7866;52.280;9.500;2023-03-20T07:53:44;100558.41;;;10.28;79.37
15529;BME280;7866;52.280;9.500;2023-03-20T07:58:47;100558.75;;;10.33;79.77
15529;BME280;7866;52.280;9.500;2023-03-20T08:03:49;100568.09;;;10.29;79.50
15529;BME280;7866;52.280;9.500;2023-03-20T08:08:51;100563.03;;;10.18;79.91
15529;BME280;7866;52.280;9.500;2023-03-20T08:13:54;100556.28;;;10.48;79.26
15529;BME280;7866;52.280;9.500;2023-03-20T08:18:56;100569.72;;;10.72;79.26
15529;BME280;7866;52.280;9.500;2023-03-20T08:24:00;100557.13;;;10.56;78.55
15529;BME280;7866;52.280;9.500;2023-03-20T08:29:03;100565.78;;;10.34;78.65
15529;BME280;7866;52.280;9.500;2023-03-20T08:34:05;100566.47;;;10.36;78.76
15529;BME280;7866;52.280;9.500;2023-03-20T08:39:06;100576.50;;;10.34;78.48
15529;BME280;7866;52.280;9.500;2023-03-20T08:44:10;100570.13;;;10.35;78.84
15529;BME280;7866;52.280;9.500;2023-03-20T08:49:12;100577.31;;;10.26;79.05
15529;BME280;7866;52.280;9.500;2023-03-20T08:54:13;100580.66;;;10.28;78.36
15529;BME280;7866;52.280;9.500;2023-03-20T08:59:19;100581.25;;;10.56;78.42
15529;BME280;7866;52.280;9.500;2023-03-20T09:04:20;100574.16;;;10.31;78.34
15529;BME280;7866;52.280;9.500;2023-03-20T09:09:22;100570.91;;;10.62;77.70
15529;BME280;7866;52.280;9.500;2023-03-20T09:14:29;100571.03;;;10.60;76.81
15529;BME280;7866;52.280;9.500;2023-03-20T09:19:31;100586.94;;;10.53;77.07
15529;BME280;7866;52.280;9.500;2023-03-20T09:24:33;100594.22;;;10.77;76.35
15529;BME280;7866;52.280;9.500;2023-03-20T09:29:36;100583.97;;;10.81;75.81
15529;BME280;7866;52.280;9.500;2023-03-20T09:34:38;100582.69;;;11.26;73.78
15529;BME280;7866;52.280;9.500;2023-03-20T09:39:39;100586.53;;;11.56;72.32
15529;BME280;7866;52.280;9.500;2023-03-20T09:44:51;100577.63;;;11.55;71.85
15529;BME280;7866;52.280;9.500;2023-03-20T09:50:10;100586.53;;;11.48;71.44
15529;BME280;7866;52.280;9.500;2023-03-20T09:55:13;100581.09;;;11.97;70.57
15529;BME280;7866;52.280;9.500;2023-03-20T10:00:19;100593.38;;;11.75;70.24
15529;BME280;7866;52.280;9.500;2023-03-20T10:05:24;100598.28;;;11.39;70.58
15529;BME280;7866;52.280;9.500;2023-03-20T10:10:33;100602.97;;;11.61;70.22
15529;BME280;7866;52.280;9.500;2023-03-20T10:15:44;100592.69;;;11.65;66.79
15529;BME280;7866;52.280;9.500;2023-03-20T10:20:53;100593.91;;;11.46;68.57
15529;BME280;7866;52.280;9.500;2023-03-20T10:25:59;100597.94;;;11.58;68.44
15529;BME280;7866;52.280;9.500;2023-03-20T10:31:16;100595.91;;;11.60;67.68
15529;BME280;7866;52.280;9.500;2023-03-20T10:36:34;100602.56;;;11.80;68.05
15529;BME280;7866;52.280;9.500;2023-03-20T10:41:52;100596.88;;;11.92;67.21
15529;BME280;7866;52.280;9.500;2023-03-20T10:46:58;100601.25;;;11.76;67.83
15529;BME280;7866;52.280;9.500;2023-03-20T10:52:04;100597.44;;;11.54;64.78
15529;BME280;7866;52.280;9.500;2023-03-20T10:57:12;100601.94;;;11.87;66.88
15529;BME280;7866;52.280;9.500;2023-03-20T11:02:18;100591.63;;;12.15;65.73
15529;BME280;7866;52.280;9.500;2023-03-20T11:07:23;100592.53;;;11.82;65.88
15529;BME280;7866;52.280;9.500;2023-03-20T11:12:32;100572.28;;;11.55;66.89
15529;BME280;7866;52.280;9.500;2023-03-20T11:17:35;100554.34;;;12.20;64.82
15529;BME280;7866;52.280;9.500;2023-03-20T11:22:37;100563.66;;;11.93;64.73
15529;BME280;7866;52.280;9.500;2023-03-20T11:27:39;100555.31;;;12.27;63.29
15529;BME280;7866;52.280;9.500;2023-03-20T11:32:45;100559.16;;;12.32;63.19
15529;BME280;7866;52.280;9.500;2023-03-20T11:37:49;100560.59;;;12.12;64.11
15529;BME280;7866;52.280;9.500;2023-03-20T11:42:53;100558.97;;;11.95;62.47
15529;BME280;7866;52.280;9.500;2023-03-20T11:47:59;100547.75;;;11.91;64.23
15529;BME280;7866;52.280;9.500;2023-03-20T11:53:03;100547.06;;;11.97;61.10
15529;BME280;7866;52.280;9.500;2023-03-20T11:58:06;100545.31;;;12.21;62.63
15529;BME280;7866;52.280;9.500;2023-03-20T12:03:48;100528.66;;;12.25;61.49
15529;BME280;7866;52.280;9.500;2023-03-20T12:08:56;100535.66;;;11.95;63.00
15529;BME280;7866;52.280;9.500;2023-03-20T12:14:01;100535.72;;;12.18;62.83
15529;BME280;7866;52.280;9.500;2023-03-20T12:19:12;100517.09;;;12.25;63.22
15529;BME280;7866;52.280;9.500;2023-03-20T12:24:25;100523.78;;;12.29;61.76
15529;BME280;7866;52.280;9.500;2023-03-20T12:29:36;100525.06;;;12.02;62.98
15529;BME280;7866;52.280;9.500;2023-03-20T12:34:42;100533.78;;;12.04;63.85
15529;BME280;7866;52.280;9.500;2023-03-20T12:39:50;100538.19;;;11.72;63.09
15529;BME280;7866;52.280;9.500;2023-03-20T12:44:54;100532.03;;;11.64;62.86
15529;BME280;7866;52.280;9.500;2023-03-20T12:50:06;100530.97;;;11.73;63.26
15529;BME280;7866;52.280;9.500;2023-03-20T12:55:20;100522.66;;;12.15;62.58
15529;BME280;7866;52.280;9.500;2023-03-20T13:00:29;100520.50;;;12.42;61.59
15529;BME280;7866;52.280;9.500;2023-03-20T13:05:40;100514.09;;;12.97;60.60
15529;BME280;7866;52.280;9.500;2023-03-20T13:10:50;100502.50;;;12.50;60.33
15529;BME280;7866;52.280;9.500;2023-03-20T13:16:04;100506.09;;;12.66;59.82
15529;BME280;7866;52.280;9.500;2023-03-20T13:21:14;100501.00;;;12.94;58.19
15529;BME280;7866;52.280;9.500;2023-03-20T13:26:26;100506.16;;;12.57;59.10
15529;BME280;7866;52.280;9.500;2023-03-20T13:31:43;100506.25;;;12.64;61.10
15529;BME280;7866;52.280;9.500;2023-03-20T13:36:58;100498.63;;;12.53;60.13
15529;BME280;7866;52.280;9.500;2023-03-20T13:42:10;100483.91;;;12.64;60.00
15529;BME280;7866;52.280;9.500;2023-03-20T13:47:15;100487.16;;;12.28;59.67
15529;BME280;7866;52.280;9.500;2023-03-20T13:52:22;100488.88;;;12.52;58.42
15529;BME280;7866;52.280;9.500;2023-03-20T14:02:53;100474.50;;;12.14;61.12
15529;BME280;7866;52.280;9.500;2023-03-20T14:08:22;100485.84;;;12.24;58.01
15529;BME280;7866;52.280;9.500;2023-03-20T14:13:24;100479.88;;;12.14;60.39
15529;BME280;7866;52.280;9.500;2023-03-20T14:18:25;100472.50;;;12.39;59.51
15529;BME280;7866;52.280;9.500;2023-03-20T14:23:34;100481.28;;;12.55;59.64
15529;BME280;7866;52.280;9.500;2023-03-20T14:28:45;100481.94;;;12.35;58.42
15529;BME280;7866;52.280;9.500;2023-03-20T14:33:57;100476.38;;;12.13;60.04
15529;BME280;7866;52.280;9.500;2023-03-20T14:39:14;100470.38;;;12.03;58.26
15529;BME280;7866;52.280;9.500;2023-03-20T14:44:25;100466.22;;;11.92;60.73
15529;BME280;7866;52.280;9.500;2023-03-20T14:49:50;100479.44;;;12.02;58.83
15529;BME280;7866;52.280;9.500;2023-03-20T14:55:13;100479.50;;;11.77;59.43
15529;BME280;7866;52.280;9.500;2023-03-20T15:00:17;100474.16;;;11.77;59.51
15529;BME280;7866;52.280;9.500;2023-03-20T15:05:23;100476.84;;;11.69;60.29
15529;BME280;7866;52.280;9.500;2023-03-20T15:10:28;100474.34;;;11.59;60.54
15529;BME280;7866;52.280;9.500;2023-03-20T15:15:31;100471.69;;;11.51;60.63
15529;BME280;7866;52.280;9.500;2023-03-20T15:20:34;100470.69;;;11.52;60.04
15529;BME280;7866;52.280;9.500;2023-03-20T15:25:39;100473.31;;;11.77;60.10
15529;BME280;7866;52.280;9.500;2023-03-20T15:30:44;100477.75;;;11.53;60.86
15529;BME280;7866;52.280;9.500;2023-03-20T15:35:47;100482.13;;;11.38;61.19
15529;BME280;7866;52.280;9.500;2023-03-20T15:40:50;100484.16;;;11.28;61.35
15529;BME280;7866;52.280;9.500;2023-03-20T15:45:53;100468.22;;;11.43;61.08
15529;BME280;7866;52.280;9.500;2023-03-20T15:50:58;100467.06;;;11.21;61.67
15529;BME280;7866;52.280;9.500;2023-03-20T15:56:06;100476.97;;;11.20;61.07
15529;BME280;7866;52.280;9.500;2023-03-20T16:01:08;100470.47;;;11.06;61.78
15529;BME280;7866;52.280;9.500;2023-03-20T16:06:18;100466.09;;;11.05;62.10
15529;BME280;7866;52.280;9.500;2023-03-20T16:11:21;100457.22;;;11.13;62.33
15529;BME280;7866;52.280;9.500;2023-03-20T16:16:23;100461.91;;;10.95;62.28
15529;BME280;7866;52.280;9.500;2023-03-20T16:21:27;100464.09;;;10.99;61.79
15529;BME280;7866;52.280;9.500;2023-03-20T16:26:35;100460.09;;;10.79;61.85
15529;BME280;7866;52.280;9.500;2023-03-20T16:31:40;100450.03;;;11.05;62.43
15529;BME280;7866;52.280;9.500;2023-03-20T16:36:51;100446.00;;;10.85;62.32
15529;BME280;7866;52.280;9.500;2023-03-20T16:42:14;100455.53;;;11.04;62.47
15529;BME280;7866;52.280;9.500;2023-03-20T16:47:23;100438.97;;;10.84;62.11
15529;BME280;7866;52.280;9.500;2023-03-20T16:52:26;100437.00;;;10.70;63.01
15529;BME280;7866;52.280;9.500;2023-03-20T16:57:34;100446.00;;;10.69;63.33
15529;BME280;7866;52.280;9.500;2023-03-20T17:02:39;100451.03;;;10.72;63.06
15529;BME280;7866;52.280;9.500;2023-03-20T17:07:41;100444.84;;;10.71;62.99
15529;BME280;7866;52.280;9.500;2023-03-20T17:12:46;100446.00;;;10.60;63.95
15529;BME280;7866;52.280;9.500;2023-03-20T17:17:48;100452.69;;;10.56;64.08
15529;BME280;7866;52.280;9.500;2023-03-20T17:22:50;100450.53;;;10.52;64.56
15529;BME280;7866;52.280;9.500;2023-03-20T17:27:53;100457.91;;;10.50;64.35
15529;BME280;7866;52.280;9.500;2023-03-20T17:32:55;100457.72;;;10.43;64.55
15529;BME280;7866;52.280;9.500;2023-03-20T17:37:56;100463.06;;;10.43;64.48
15529;BME280;7866;52.280;9.500;2023-03-20T17:42:59;100463.56;;;10.39;64.79
15529;BME280;7866;52.280;9.500;2023-03-20T17:48:01;100462.56;;;10.40;64.31
15529;BME280;7866;52.280;9.500;2023-03-20T17:53:03;100467.56;;;10.34;65.18
15529;BME280;7866;52.280;9.500;2023-03-20T17:58:06;100469.41;;;10.34;64.82
15529;BME280;7866;52.280;9.500;2023-03-20T18:03:07;100469.69;;;10.15;65.49
15529;BME280;7866;52.280;9.500;2023-03-20T18:08:12;100468.16;;;10.20;65.38
15529;BME280;7866;52.280;9.500;2023-03-20T18:13:16;100465.66;;;10.19;65.56
15529;BME280;7866;52.280;9.500;2023-03-20T18:18:20;100472.50;;;10.13;66.05
15529;BME280;7866;52.280;9.500;2023-03-20T18:23:22;100485.53;;;10.08;66.11
15529;BME280;7866;52.280;9.500;2023-03-20T18:28:25;100471.63;;;9.96;66.61
15529;BME280;7866;52.280;9.500;2023-03-20T18:33:26;100468.91;;;9.88;66.74
15529;BME280;7866;52.280;9.500;2023-03-20T18:38:28;100474.28;;;9.96;66.93
15529;BME280;7866;52.280;9.500;2023-03-20T18:43:31;100475.44;;;9.85;67.16
15529;BME280;7866;52.280;9.500;2023-03-20T18:48:33;100471.41;;;9.81;66.97
15529;BME280;7866;52.280;9.500;2023-03-20T18:53:35;100466.66;;;9.67;68.26
15529;BME280;7866;52.280;9.500;2023-03-20T18:58:38;100471.22;;;9.75;68.43
15529;BME280;7866;52.280;9.500;2023-03-20T19:03:39;100458.91;;;9.56;68.86
15529;BME280;7866;52.280;9.500;2023-03-20T19:08:42;100459.44;;;9.59;69.02
15529;BME280;7866;52.280;9.500;2023-03-20T19:13:46;100460.75;;;9.55;68.59
15529;BME280;7866;52.280;9.500;2023-03-20T19:18:50;100455.19;;;9.49;69.65
15529;BME280;7866;52.280;9.500;2023-03-20T19:23:53;100443.63;;;9.40;70.02
15529;BME280;7866;52.280;9.500;2023-03-20T19:28:58;100452.50;;;9.49;69.71
15529;BME280;7866;52.280;9.500;2023-03-20T19:34:00;100463.34;;;9.39;69.47
15529;BME280;7866;52.280;9.500;2023-03-20T19:39:05;100462.66;;;9.37;70.73
15529;BME280;7866;52.280;9.500;2023-03-20T19:44:08;100465.97;;;9.31;70.47
15529;BME280;7866;52.280;9.500;2023-03-20T19:49:15;100464.34;;;9.38;70.52
15529;BME280;7866;52.280;9.500;2023-03-20T19:54:17;100459.34;;;9.43;70.82
15529;BME280;7866;52.280;9.500;2023-03-20T19:59:20;100453.16;;;9.43;71.60
15529;BME280;7866;52.280;9.500;2023-03-20T20:04:22;100462.28;;;9.32;71.69
15529;BME280;7866;52.280;9.500;2023-03-20T20:09:24;100471.13;;;9.32;72.39
15529;BME280;7866;52.280;9.500;2023-03-20T20:14:27;100465.44;;;9.27;72.85
15529;BME280;7866;52.280;9.500;2023-03-20T20:19:28;100461.50;;;9.13;73.96
15529;BME280;7866;52.280;9.500;2023-03-20T20:24:30;100453.81;;;9.10;73.93
15529;BME280;7866;52.280;9.500;2023-03-20T20:29:33;100463.59;;;9.02;76.15
15529;BME280;7866;52.280;9.500;2023-03-20T20:34:35;100439.19;;;8.97;76.89
15529;BME280;7866;52.280;9.500;2023-03-20T20:39:38;100452.56;;;8.79;78.58
15529;BME280;7866;52.280;9.500;2023-03-20T20:44:41;100446.22;;;8.80;79.48
15529;BME280;7866;52.280;9.500;2023-03-20T20:49:44;100450.22;;;8.76;77.16
15529;BME280;7866;52.280;9.500;2023-03-20T20:54:46;100440.94;;;8.88;77.27
15529;BME280;7866;52.280;9.500;2023-03-20T20:59:49;100447.44;;;8.85;77.98
15529;BME280;7866;52.280;9.500;2023-03-20T21:04:58;100452.63;;;8.87;78.13
15529;BME280;7866;52.280;9.500;2023-03-20T21:10:00;100452.00;;;8.93;77.65
15529;BME280;7866;52.280;9.500;2023-03-20T21:15:04;100446.94;;;8.82;78.73
15529;BME280;7866;52.280;9.500;2023-03-20T21:20:06;100457.34;;;8.93;78.32
15529;BME280;7866;52.280;9.500;2023-03-20T21:25:08;100454.31;;;8.88;79.00
15529;BME280;7866;52.280;9.500;2023-03-20T21:30:12;100453.25;;;8.81;80.39
15529;BME280;7866;52.280;9.500;2023-03-20T21:35:13;100451.28;;;8.83;81.23
15529;BME280;7866;52.280;9.500;2023-03-20T21:40:15;100436.50;;;8.71;81.79
15529;BME280;7866;52.280;9.500;2023-03-20T21:45:18;100434.97;;;8.68;83.17
15529;BME280;7866;52.280;9.500;2023-03-20T21:50:20;100432.91;;;8.62;81.83
15529;BME280;7866;52.280;9.500;2023-03-20T21:55:22;100433.06;;;8.60;82.42
15529;BME280;7866;52.280;9.500;2023-03-20T22:00:25;100433.06;;;8.60;84.64
15529;BME280;7866;52.280;9.500;2023-03-20T22:05:27;100432.00;;;8.53;85.92
15529;BME280;7866;52.280;9.500;2023-03-20T22:10:29;100418.72;;;8.61;84.87
15529;BME280;7866;52.280;9.500;2023-03-20T22:15:31;100428.03;;;8.57;82.88
15529;BME280;7866;52.280;9.500;2023-03-20T22:20:33;100422.69;;;8.57;84.24
15529;BME280;7866;52.280;9.500;2023-03-20T22:25:35;100425.34;;;8.57;84.58
15529;BME280;7866;52.280;9.500;2023-03-20T22:30:38;100423.09;;;8.62;86.22
15529;BME280;7866;52.280;9.500;2023-03-20T22:35:40;100424.28;;;8.68;84.54
15529;BME280;7866;52.280;9.500;2023-03-20T22:40:42;100416.50;;;8.75;85.19
15529;BME280;7866;52.280;9.500;2023-03-20T22:45:47;100422.91;;;8.82;85.05
15529;BME280;7866;52.280;9.500;2023-03-20T22:50:50;100421.53;;;8.78;85.67
15529;BME280;7866;52.280;9.500;2023-03-20T22:55:52;100411.34;;;8.81;85.37
15529;BME280;7866;52.280;9.500;2023-03-20T23:00:55;100412.88;;;8.84;85.31
15529;BME280;7866;52.280;9.500;2023-03-20T23:06:04;100413.88;;;8.83;83.02
15529;BME280;7866;52.280;9.500;2023-03-20T23:11:06;100401.06;;;8.86;85.53
15529;BME280;7866;52.280;9.500;2023-03-20T23:16:10;100406.53;;;8.85;85.97
15529;BME280;7866;52.280;9.500;2023-03-20T23:21:12;100394.50;;;8.81;87.48
15529;BME280;7866;52.280;9.500;2023-03-20T23:26:15;100401.47;;;8.74;87.44
15529;BME280;7866;52.280;9.500;2023-03-20T23:31:20;100404.66;;;8.77;88.75
15529;BME280;7866;52.280;9.500;2023-03-20T23:36:23;100415.59;;;8.66;88.16
15529;BME280;7866;52.280;9.500;2023-03-20T23:41:25;100404.38;;;8.62;89.78
15529;BME280;7866;52.280;9.500;2023-03-20T23:46:28;100404.16;;;8.74;89.38
15529;BME280;7866;52.280;9.500;2023-03-20T23:51:30;100398.06;;;8.63;90.65
15529;BME280;7866;52.280;9.500;2023-03-20T23:56:31;100404.00;;;8.57;91.21
